createdAt,value
2023-02-15T00:00:07.323Z,13.63
2023-02-15T00:02:34.676Z,13.30
2023-02-15T00:05:02.162Z,12.97
2023-02-15T00:07:29.576Z,13.20
2023-02-15T00:09:56.989Z,12.57
2023-02-15T00:12:24.400Z,12.27
2023-02-15T00:14:52.301Z,13.87
2023-02-15T00:17:21.064Z,13.00
2023-02-15T00:19:48.496Z,12.93
2023-02-15T00:22:15.880Z,12.17
2023-02-15T00:24:43.271Z,12.60
2023-02-15T00:27:11.069Z,13.37
2023-02-15T00:29:38.506Z,13.50
2023-02-15T00:32:05.910Z,13.03
2023-02-15T00:34:34.681Z,12.77
2023-02-15T00:37:02.100Z,12.33
2023-02-15T00:39:29.923Z,13.83
2023-02-15T00:41:57.340Z,12.03
2023-02-15T00:44:24.736Z,11.67
2023-02-15T00:46:52.176Z,12.63
2023-02-15T00:49:21.425Z,13.00
2023-02-15T00:51:50.379Z,11.63
2023-02-15T00:54:17.765Z,12.17
2023-02-15T00:56:45.605Z,12.07
2023-02-15T00:59:13.282Z,11.40
2023-02-15T01:01:40.708Z,12.23
2023-02-15T01:04:08.175Z,12.60
2023-02-15T01:06:35.556Z,12.57
2023-02-15T01:09:04.430Z,12.90
2023-02-15T01:11:31.878Z,12.90
2023-02-15T01:14:00.093Z,12.60
2023-02-15T01:16:29.830Z,12.43
2023-02-15T01:18:57.328Z,13.07
2023-02-15T01:21:25.584Z,12.87
2023-02-15T01:23:53.441Z,13.27
2023-02-15T01:26:22.201Z,12.80
2023-02-15T01:28:49.680Z,12.87
2023-02-15T01:31:19.061Z,14.63
2023-02-15T01:33:47.345Z,12.93
2023-02-15T01:36:15.113Z,12.90
2023-02-15T01:38:42.586Z,13.00
2023-02-15T01:41:23.767Z,12.67
2023-02-15T01:43:53.986Z,11.97
2023-02-15T01:46:23.990Z,11.80
2023-02-15T01:48:53.741Z,11.97
2023-02-15T01:51:23.385Z,11.57
2023-02-15T01:53:53.405Z,11.73
2023-02-15T01:56:22.037Z,11.40
2023-02-15T01:58:51.191Z,11.07
2023-02-15T02:01:20.588Z,11.53
2023-02-15T02:03:52.013Z,11.90
2023-02-15T02:06:19.718Z,11.67
2023-02-15T02:08:47.574Z,11.93
2023-02-15T02:11:16.246Z,12.17
2023-02-15T02:13:47.276Z,12.23
2023-02-15T02:16:16.815Z,12.33
2023-02-15T02:18:50.886Z,11.87
2023-02-15T02:21:34.948Z,11.50
2023-02-15T02:24:29.124Z,12.13
2023-02-15T02:27:05.896Z,12.40
2023-02-15T02:30:00.983Z,12.13
2023-02-15T02:32:39.882Z,12.23
2023-02-15T02:35:12.490Z,12.20
2023-02-15T02:37:45.364Z,12.33
2023-02-15T02:40:14.989Z,11.90
2023-02-15T02:42:44.141Z,12.03
2023-02-15T02:45:14.292Z,11.93
2023-02-15T02:47:45.715Z,12.17
2023-02-15T02:50:16.988Z,11.43
2023-02-15T02:52:45.134Z,11.37
2023-02-15T02:55:14.781Z,11.17
2023-02-15T02:57:44.502Z,11.43
2023-02-15T03:00:12.878Z,11.40
2023-02-15T03:02:43.308Z,11.37
2023-02-15T03:05:12.613Z,11.27
2023-02-15T03:07:43.293Z,11.50
2023-02-15T03:10:11.458Z,11.23
2023-02-15T03:12:40.122Z,11.60
2023-02-15T03:15:09.985Z,11.60
2023-02-15T03:17:41.965Z,11.97
2023-02-15T03:20:11.109Z,11.67
2023-02-15T03:22:40.539Z,12.33
2023-02-15T03:25:14.856Z,12.53
2023-02-15T03:27:44.925Z,11.80
2023-02-15T03:30:14.493Z,11.90
2023-02-15T03:32:43.649Z,11.67
2023-02-15T03:35:11.377Z,10.43
2023-02-15T03:37:41.025Z,10.83
2023-02-15T03:40:24.562Z,10.60
2023-02-15T03:42:57.609Z,10.13
2023-02-15T03:45:26.946Z,9.23
2023-02-15T03:47:55.888Z,10.53
2023-02-15T03:50:44.263Z,10.03
2023-02-15T03:53:14.152Z,10.30
2023-02-15T03:55:41.610Z,10.53
2023-02-15T03:58:27.871Z,11.93
2023-02-15T04:01:15.231Z,12.20
2023-02-15T04:03:44.514Z,11.37
2023-02-15T04:06:11.898Z,11.90
2023-02-15T04:08:56.809Z,11.80
2023-02-15T04:11:24.200Z,12.20
2023-02-15T04:13:57.408Z,12.63
2023-02-15T04:16:23.949Z,13.77
2023-02-15T04:19:09.204Z,10.70
2023-02-15T04:21:54.079Z,11.47
2023-02-15T04:24:38.834Z,10.60
2023-02-15T04:27:06.442Z,11.30
2023-02-15T04:29:35.163Z,13.90
2023-02-15T04:32:02.849Z,12.37
2023-02-15T04:34:30.323Z,12.33
2023-02-15T04:36:57.760Z,13.47
2023-02-15T04:39:25.158Z,11.13
2023-02-15T04:41:52.566Z,12.10
2023-02-15T04:44:20.086Z,11.00
2023-02-15T04:46:48.860Z,12.03
2023-02-15T04:49:16.270Z,11.53
2023-02-15T04:51:43.718Z,12.73
2023-02-15T04:54:11.170Z,12.70
2023-02-15T04:56:39.752Z,12.03
2023-02-15T04:59:07.310Z,12.57
2023-02-15T05:01:34.917Z,11.40
2023-02-15T05:04:04.008Z,10.97
2023-02-15T05:06:31.555Z,12.37
2023-02-15T05:09:00.014Z,15.23
2023-02-15T05:11:27.493Z,11.27
2023-02-15T05:13:54.856Z,10.70
2023-02-15T05:16:22.307Z,10.97
2023-02-15T05:18:49.757Z,10.97
2023-02-15T05:21:18.480Z,9.83
2023-02-15T05:23:45.808Z,9.73
2023-02-15T05:26:30.839Z,10.07
2023-02-15T05:28:58.214Z,10.63
2023-02-15T05:31:25.839Z,10.50
2023-02-15T05:33:53.411Z,10.10
2023-02-15T05:36:22.195Z,10.83
2023-02-15T05:38:49.640Z,11.33
2023-02-15T05:41:17.432Z,11.30
2023-02-15T05:43:44.875Z,11.30
2023-02-15T05:46:13.462Z,11.47
2023-02-15T05:48:40.905Z,10.73
2023-02-15T05:51:09.195Z,10.60
2023-02-15T05:53:38.849Z,10.20
2023-02-15T05:56:07.032Z,9.50
2023-02-15T05:58:35.155Z,10.10
2023-02-15T06:01:09.267Z,9.77
2023-02-15T06:03:36.950Z,10.53
2023-02-15T06:06:05.482Z,10.47
2023-02-15T06:08:32.884Z,10.37
2023-02-15T06:11:02.138Z,9.30
2023-02-15T06:13:29.721Z,10.03
2023-02-15T06:15:57.241Z,10.37
2023-02-15T06:18:24.723Z,10.80
2023-02-15T06:20:52.159Z,10.90
2023-02-15T06:23:19.563Z,10.43
2023-02-15T06:25:47.364Z,11.00
2023-02-15T06:28:16.128Z,10.00
2023-02-15T06:30:43.629Z,10.37
2023-02-15T06:33:11.311Z,10.40
2023-02-15T06:35:38.776Z,10.50
2023-02-15T06:38:06.242Z,9.83
2023-02-15T06:40:33.645Z,10.33
2023-02-15T06:43:01.001Z,10.80
2023-02-15T06:45:29.745Z,11.80
2023-02-15T06:47:57.116Z,10.87
2023-02-15T06:50:24.491Z,10.27
2023-02-15T06:52:56.888Z,10.37
2023-02-15T06:55:24.331Z,10.70
2023-02-15T06:57:51.750Z,10.53
2023-02-15T07:00:19.629Z,9.47
2023-02-15T07:02:48.442Z,9.73
2023-02-15T07:05:15.963Z,10.07
2023-02-15T07:07:43.413Z,10.40
2023-02-15T07:10:10.919Z,9.17
2023-02-15T07:12:43.380Z,8.83
2023-02-15T07:15:11.032Z,10.00
2023-02-15T07:17:38.739Z,10.57
2023-02-15T07:20:09.633Z,10.17
2023-02-15T07:22:38.061Z,9.10
2023-02-15T07:25:05.610Z,9.60
2023-02-15T07:27:33.324Z,10.03
2023-02-15T07:30:02.145Z,10.20
2023-02-15T07:32:30.316Z,10.10
2023-02-15T07:34:57.795Z,10.03
2023-02-15T07:37:26.790Z,10.50
2023-02-15T07:39:54.214Z,10.63
2023-02-15T07:42:22.805Z,10.43
2023-02-15T07:44:50.258Z,9.80
2023-02-15T07:47:17.732Z,10.23
2023-02-15T07:49:45.153Z,10.93
2023-02-15T07:52:12.639Z,11.43
2023-02-15T07:54:41.409Z,11.17
2023-02-15T07:57:08.920Z,10.97
2023-02-15T07:59:36.357Z,10.67
2023-02-15T08:02:03.773Z,10.50
2023-02-15T08:04:32.019Z,11.03
2023-02-15T08:06:59.442Z,10.13
2023-02-15T08:09:26.855Z,9.67
2023-02-15T08:11:55.580Z,8.83
2023-02-15T08:14:23.643Z,9.57
2023-02-15T08:16:51.931Z,9.30
2023-02-15T08:19:20.326Z,9.13
2023-02-15T08:21:48.799Z,10.43
2023-02-15T08:24:17.163Z,10.60
2023-02-15T08:26:45.931Z,11.23
2023-02-15T08:29:15.224Z,10.87
2023-02-15T08:31:43.017Z,14.60
2023-02-15T08:34:11.381Z,13.40
2023-02-15T08:36:39.150Z,12.30
2023-02-15T08:39:08.105Z,11.27
2023-02-15T08:41:36.872Z,10.97
2023-02-15T08:44:05.329Z,11.20
2023-02-15T08:46:34.999Z,11.73
2023-02-15T08:49:03.716Z,11.43
2023-02-15T08:51:45.492Z,11.83
2023-02-15T08:54:27.576Z,11.63
2023-02-15T08:57:15.452Z,11.60
2023-02-15T08:59:56.845Z,12.00
2023-02-15T09:02:45.509Z,13.30
2023-02-15T09:05:26.724Z,11.23
2023-02-15T09:08:14.531Z,11.47
2023-02-15T09:10:55.553Z,11.07
2023-02-15T09:13:30.353Z,11.67
2023-02-15T09:16:01.175Z,12.20
2023-02-15T09:18:31.277Z,11.37
2023-02-15T09:20:58.935Z,11.53
2023-02-15T09:23:27.219Z,12.53
2023-02-15T09:25:54.919Z,12.00
2023-02-15T09:28:22.316Z,12.03
2023-02-15T09:30:49.738Z,12.97
2023-02-15T09:33:17.134Z,12.83
2023-02-15T09:35:45.855Z,13.43
2023-02-15T09:38:13.242Z,12.63
2023-02-15T09:40:44.724Z,13.17
2023-02-15T09:43:20.020Z,13.10
2023-02-15T09:46:00.619Z,13.60
2023-02-15T09:48:42.981Z,13.57
2023-02-15T09:51:22.994Z,13.07
2023-02-15T09:53:57.041Z,12.87
2023-02-15T09:56:28.409Z,12.53
2023-02-15T09:58:59.803Z,14.10
2023-02-15T10:01:32.319Z,12.83
2023-02-15T10:04:08.225Z,12.83
2023-02-15T10:06:42.985Z,12.73
2023-02-15T10:09:25.335Z,12.17
2023-02-15T10:12:03.536Z,13.97
2023-02-15T10:14:49.922Z,12.80
2023-02-15T10:17:23.831Z,13.80
2023-02-15T10:19:58.659Z,15.07
2023-02-15T10:22:33.807Z,13.43
2023-02-15T10:25:12.851Z,12.60
2023-02-15T10:27:45.600Z,13.43
2023-02-15T10:30:14.064Z,13.57
2023-02-15T10:32:43.622Z,13.50
2023-02-15T10:35:16.748Z,14.03
2023-02-15T10:37:54.465Z,16.77
2023-02-15T10:40:26.889Z,17.23
2023-02-15T10:43:01.784Z,17.63
2023-02-15T10:45:32.915Z,14.23
2023-02-15T10:48:08.053Z,13.57
2023-02-15T10:50:41.724Z,13.57
2023-02-15T10:53:21.219Z,12.83
2023-02-15T10:55:52.668Z,13.10
2023-02-15T10:58:26.646Z,13.23
2023-02-15T11:01:00.672Z,13.93
2023-02-15T11:03:35.154Z,13.97
2023-02-15T11:06:05.091Z,13.47
2023-02-15T11:08:36.427Z,13.13
2023-02-15T11:11:06.313Z,13.30
2023-02-15T11:13:35.702Z,14.23
2023-02-15T11:16:04.625Z,14.27
2023-02-15T11:18:34.869Z,13.27
2023-02-15T11:21:04.235Z,14.63
2023-02-15T11:23:33.853Z,14.40
2023-02-15T11:26:04.478Z,14.40
2023-02-15T11:28:33.258Z,13.97
2023-02-15T11:31:04.309Z,13.27
2023-02-15T11:33:33.473Z,13.70
2023-02-15T11:36:02.566Z,13.00
2023-02-15T11:38:31.715Z,14.10
2023-02-15T11:41:01.274Z,14.43
2023-02-15T11:43:33.961Z,14.20
2023-02-15T11:46:01.516Z,12.83
2023-02-15T11:48:31.491Z,14.60
2023-02-15T11:50:59.235Z,14.13
2023-02-15T11:53:34.292Z,14.50
2023-02-15T11:56:02.103Z,13.63
2023-02-15T11:58:32.389Z,15.47
2023-02-15T12:01:04.307Z,14.70
2023-02-15T12:03:46.487Z,14.17
2023-02-15T12:06:17.545Z,15.80
2023-02-15T12:08:47.973Z,15.27
2023-02-15T12:11:18.877Z,15.83
2023-02-15T12:13:58.192Z,15.83
2023-02-15T12:16:26.035Z,15.73
2023-02-15T12:18:54.770Z,16.50
2023-02-15T12:21:27.789Z,17.00
2023-02-15T12:23:56.657Z,17.70
2023-02-15T12:26:27.702Z,18.03
2023-02-15T12:28:58.794Z,17.73
2023-02-15T12:31:29.196Z,16.10
2023-02-15T12:33:59.009Z,15.80
2023-02-15T12:36:28.884Z,15.70
2023-02-15T12:39:07.226Z,17.20
2023-02-15T12:41:35.215Z,16.80
2023-02-15T12:44:14.377Z,15.70
2023-02-15T12:46:43.622Z,15.17
2023-02-15T12:49:21.959Z,16.33
2023-02-15T12:51:50.744Z,15.63
2023-02-15T12:54:33.094Z,15.83
2023-02-15T12:57:00.871Z,17.67
2023-02-15T12:59:28.488Z,18.60
2023-02-15T13:01:58.047Z,18.87
2023-02-15T13:04:27.040Z,19.67
2023-02-15T13:06:56.403Z,19.33
2023-02-15T13:09:28.777Z,16.90
2023-02-15T13:11:56.522Z,16.93
2023-02-15T13:14:27.504Z,16.20
2023-02-15T13:16:57.558Z,15.57
2023-02-15T13:19:31.203Z,15.47
2023-02-15T13:21:59.838Z,15.70
2023-02-15T13:24:30.079Z,15.13
2023-02-15T13:27:13.151Z,16.90
2023-02-15T13:29:44.627Z,18.77
2023-02-15T13:32:15.143Z,19.43
2023-02-15T13:34:44.178Z,20.47
2023-02-15T13:37:17.440Z,19.33
2023-02-15T13:39:46.327Z,16.77
2023-02-15T13:42:21.865Z,18.27
2023-02-15T13:44:55.182Z,17.87
2023-02-15T13:47:26.808Z,18.77
2023-02-15T13:50:00.675Z,19.37
2023-02-15T13:52:29.353Z,18.97
2023-02-15T13:55:04.961Z,16.67
2023-02-15T13:57:45.611Z,16.97
2023-02-15T14:00:18.973Z,17.20
2023-02-15T14:02:55.339Z,18.60
2023-02-15T14:05:38.807Z,17.50
2023-02-15T14:08:10.962Z,17.97
2023-02-15T14:10:43.035Z,17.60
2023-02-15T14:13:34.450Z,15.93
2023-02-15T14:16:05.081Z,16.57
2023-02-15T14:18:37.488Z,16.57
2023-02-15T14:21:09.011Z,16.63
2023-02-15T14:23:44.082Z,16.40
2023-02-15T14:26:16.270Z,17.37
2023-02-15T14:28:46.674Z,16.07
2023-02-15T14:31:15.599Z,16.13
2023-02-15T14:33:44.985Z,16.17
2023-02-15T14:36:16.151Z,16.13
2023-02-15T14:38:50.712Z,17.00
2023-02-15T14:41:19.481Z,15.83
2023-02-15T14:43:50.289Z,16.17
2023-02-15T14:46:21.179Z,16.33
2023-02-15T14:48:49.571Z,16.13
2023-02-15T14:51:35.804Z,15.20
2023-02-15T14:54:04.592Z,15.77
2023-02-15T14:56:32.227Z,16.20
2023-02-15T14:59:01.718Z,15.20
2023-02-15T15:01:29.962Z,15.70
2023-02-15T15:03:59.205Z,14.87
2023-02-15T15:06:28.667Z,16.03
2023-02-15T15:09:00.347Z,15.53
2023-02-15T15:11:44.745Z,15.63
2023-02-15T15:14:13.356Z,16.13
2023-02-15T15:16:49.632Z,16.13
2023-02-15T15:19:44.450Z,15.80
2023-02-15T15:22:19.949Z,16.27
2023-02-15T15:24:47.912Z,16.40
2023-02-15T15:27:34.105Z,16.50
2023-02-15T15:30:03.231Z,16.33
2023-02-15T15:32:31.979Z,16.23
2023-02-15T15:35:07.099Z,16.10
2023-02-15T15:37:48.741Z,16.20
2023-02-15T15:40:25.926Z,16.33
2023-02-15T15:43:02.895Z,16.60
2023-02-15T15:45:41.678Z,16.83
2023-02-15T15:48:29.015Z,16.77
2023-02-15T15:50:58.980Z,19.33
2023-02-15T15:53:27.288Z,23.20
2023-02-15T15:56:04.812Z,18.53
2023-02-15T15:58:32.660Z,17.43
2023-02-15T16:01:04.342Z,17.13
2023-02-15T16:03:31.896Z,16.53
2023-02-15T16:06:01.344Z,15.40
2023-02-15T16:08:31.078Z,16.67
2023-02-15T16:10:58.968Z,15.47
2023-02-15T16:13:26.810Z,15.93
2023-02-15T16:15:55.187Z,14.80
2023-02-15T16:18:26.281Z,15.77
2023-02-15T16:20:55.022Z,14.87
2023-02-15T16:23:39.206Z,14.40
2023-02-15T16:26:12.432Z,15.90
2023-02-15T16:28:40.225Z,14.20
2023-02-15T16:31:11.174Z,14.43
2023-02-15T16:33:42.042Z,14.93
2023-02-15T16:36:12.556Z,15.00
2023-02-15T16:39:04.887Z,15.27
2023-02-15T16:41:32.395Z,16.00
2023-02-15T16:44:02.047Z,15.43
2023-02-15T16:46:30.337Z,15.80
2023-02-15T16:49:02.132Z,15.50
2023-02-15T16:51:30.658Z,16.50
2023-02-15T16:54:00.432Z,16.27
2023-02-15T16:56:29.413Z,16.17
2023-02-15T16:58:58.605Z,15.63
2023-02-15T17:01:27.146Z,15.70
2023-02-15T17:04:12.829Z,14.73
2023-02-15T17:06:41.692Z,14.93
2023-02-15T17:09:17.163Z,14.70
2023-02-15T17:11:45.189Z,15.00
2023-02-15T17:14:15.208Z,16.43
2023-02-15T17:16:45.390Z,17.87
2023-02-15T17:19:16.161Z,14.80
2023-02-15T17:21:49.502Z,15.23
2023-02-15T17:24:18.763Z,14.87
2023-02-15T17:26:50.809Z,13.90
2023-02-15T17:29:22.138Z,14.67
2023-02-15T17:31:50.454Z,14.27
2023-02-15T17:34:32.868Z,13.73
2023-02-15T17:37:03.191Z,14.77
2023-02-15T17:39:30.614Z,15.50
2023-02-15T17:41:58.014Z,15.00
2023-02-15T17:44:25.452Z,15.53
2023-02-15T17:46:52.844Z,14.90
2023-02-15T17:49:23.790Z,15.00
2023-02-15T17:51:51.248Z,14.53
2023-02-15T17:54:38.462Z,14.20
2023-02-15T17:57:07.447Z,16.97
2023-02-15T17:59:34.835Z,17.00
2023-02-15T18:02:19.780Z,15.93
2023-02-15T18:05:04.755Z,15.57
2023-02-15T18:07:49.647Z,15.07
2023-02-15T18:10:36.792Z,15.23
2023-02-15T18:13:04.279Z,17.00
2023-02-15T18:15:31.763Z,15.23
2023-02-15T18:17:59.226Z,16.43
2023-02-15T18:20:36.679Z,16.03
2023-02-15T18:23:04.173Z,15.70
2023-02-15T18:25:32.923Z,17.07
2023-02-15T18:28:00.307Z,16.63
2023-02-15T18:30:28.442Z,17.17
2023-02-15T18:32:57.486Z,15.80
2023-02-15T18:35:26.019Z,16.63
2023-02-15T18:37:53.461Z,16.73
2023-02-15T18:40:22.038Z,16.37
2023-02-15T18:42:50.901Z,15.53
2023-02-15T18:45:19.116Z,16.13
2023-02-15T18:47:47.010Z,16.43
2023-02-15T18:50:14.674Z,16.73
2023-02-15T18:52:42.405Z,17.30
2023-02-15T18:55:16.442Z,17.33
2023-02-15T18:57:45.646Z,18.10
2023-02-15T19:00:18.251Z,16.97
2023-02-15T19:02:45.779Z,17.90
2023-02-15T19:05:16.053Z,17.63
2023-02-15T19:07:45.278Z,17.13
2023-02-15T19:10:14.810Z,16.33
2023-02-15T19:12:42.247Z,16.37
2023-02-15T19:15:15.085Z,16.07
2023-02-15T19:17:43.827Z,16.17
2023-02-15T19:20:16.071Z,17.03
2023-02-15T19:22:43.592Z,17.93
2023-02-15T19:25:15.543Z,19.27
2023-02-15T19:27:42.964Z,18.30
2023-02-15T19:30:14.959Z,19.80
2023-02-15T19:32:43.772Z,19.40
2023-02-15T19:35:14.597Z,17.90
2023-02-15T19:37:42.822Z,18.40
2023-02-15T19:40:17.140Z,18.77
2023-02-15T19:42:44.514Z,19.00
2023-02-15T19:45:14.118Z,20.07
2023-02-15T19:47:44.279Z,18.67
2023-02-15T19:50:15.384Z,19.27
2023-02-15T19:52:42.997Z,18.50
2023-02-15T19:55:16.125Z,18.70
2023-02-15T19:57:43.922Z,19.77
2023-02-15T20:00:22.295Z,20.73
2023-02-15T20:02:51.418Z,19.73
2023-02-15T20:05:19.007Z,18.77
2023-02-15T20:07:47.557Z,19.37
2023-02-15T20:10:16.068Z,18.77
2023-02-15T20:12:43.792Z,19.23
2023-02-15T20:15:21.412Z,19.00
2023-02-15T20:17:48.904Z,19.07
2023-02-15T20:20:18.392Z,19.70
2023-02-15T20:22:46.924Z,17.70
2023-02-15T20:25:16.788Z,17.77
2023-02-15T20:27:44.483Z,18.50
2023-02-15T20:30:15.584Z,17.03
2023-02-15T20:32:43.022Z,17.57
2023-02-15T20:35:13.752Z,18.03
2023-02-15T20:37:42.715Z,17.70
2023-02-15T20:40:14.455Z,16.47
2023-02-15T20:42:41.875Z,17.10
2023-02-15T20:45:16.612Z,16.20
2023-02-15T20:47:48.278Z,17.23
2023-02-15T20:50:17.236Z,16.60
2023-02-15T20:52:46.300Z,16.63
2023-02-15T20:55:14.990Z,17.33
2023-02-15T20:57:42.431Z,17.07
2023-02-15T21:00:13.859Z,16.33
2023-02-15T21:02:41.519Z,16.97
2023-02-15T21:05:15.485Z,16.43
2023-02-15T21:07:42.880Z,16.97
2023-02-15T21:10:15.306Z,17.17
2023-02-15T21:12:42.749Z,16.33
2023-02-15T21:15:25.090Z,17.73
2023-02-15T21:17:52.531Z,16.60
2023-02-15T21:20:20.089Z,16.67
2023-02-15T21:22:48.486Z,18.07
2023-02-15T21:25:19.962Z,17.17
2023-02-15T21:27:47.366Z,16.87
2023-02-15T21:30:16.534Z,16.53
2023-02-15T21:32:43.995Z,16.53
2023-02-15T21:35:12.138Z,16.90
2023-02-15T21:37:40.179Z,16.70
2023-02-15T21:40:15.437Z,16.43
2023-02-15T21:43:01.821Z,17.30
2023-02-15T21:45:47.088Z,16.17
2023-02-15T21:48:14.739Z,17.20
2023-02-15T21:50:59.964Z,17.30
2023-02-15T21:53:28.899Z,16.20
2023-02-15T21:55:57.363Z,17.63
2023-02-15T21:58:27.334Z,17.20
2023-02-15T22:00:55.675Z,18.57
2023-02-15T22:03:23.461Z,17.00
2023-02-15T22:05:51.041Z,17.87
2023-02-15T22:08:18.455Z,17.40
2023-02-15T22:10:46.162Z,16.70
2023-02-15T22:13:14.918Z,17.40
2023-02-15T22:15:43.725Z,17.33
2023-02-15T22:18:18.906Z,18.20
2023-02-15T22:20:46.294Z,17.30
2023-02-15T22:23:13.716Z,17.90
2023-02-15T22:25:41.173Z,17.47
2023-02-15T22:28:16.300Z,17.90
2023-02-15T22:30:46.279Z,18.07
2023-02-15T22:33:22.299Z,17.77
2023-02-15T22:35:49.679Z,19.23
2023-02-15T22:38:17.064Z,17.70
2023-02-15T22:40:44.940Z,18.47
2023-02-15T22:43:20.675Z,19.37
2023-02-15T22:45:49.562Z,18.90
2023-02-15T22:48:21.187Z,20.00
2023-02-15T22:50:48.823Z,18.03
2023-02-15T22:53:16.239Z,20.30
2023-02-15T22:55:43.691Z,19.87
2023-02-15T22:58:14.623Z,19.43
2023-02-15T23:00:42.073Z,20.13
2023-02-15T23:03:18.618Z,19.47
2023-02-15T23:05:46.400Z,18.20
2023-02-15T23:08:14.252Z,18.13
2023-02-15T23:10:42.191Z,19.23
2023-02-15T23:13:25.990Z,20.33
2023-02-15T23:15:55.754Z,20.27
2023-02-15T23:18:26.023Z,20.07
2023-02-15T23:20:54.730Z,21.23
2023-02-15T23:23:27.016Z,21.03
2023-02-15T23:25:54.356Z,20.93
2023-02-15T23:28:23.981Z,20.97
2023-02-15T23:30:51.668Z,19.23
2023-02-15T23:33:21.106Z,19.77
2023-02-15T23:35:50.332Z,20.90
2023-02-15T23:38:25.105Z,17.50
2023-02-15T23:41:12.621Z,21.07
2023-02-15T23:43:40.977Z,18.57
2023-02-15T23:46:08.842Z,18.17
2023-02-15T23:48:37.628Z,17.50
2023-02-15T23:51:07.322Z,17.10
2023-02-15T23:53:34.877Z,17.17
2023-02-15T23:56:02.699Z,17.33
2023-02-15T23:58:35.247Z,17.63
